Detalii statie PROACUA CEFA [00001987]

Toti senzorii

Date Temperatura solului [C]Precipitatii [mm]Voltaj baterie [mV]Leaf Wetness [Min]HC Air temperature [C]HC Relative humidity [%]Punctul de roua [C]
medieminmaxsumaultimatimpmedieminmaxmediemediemin
2018-12-09 15:00:00 0 6630 7.44 7.14 8.1 0 0 0
2018-12-09 16:00:00 0 6610 6.78 6.52 7.03 0 0 0
2018-12-09 17:00:00 0 6600 6.29 6.05 6.48 0 0 0
2018-12-09 18:00:00 0 6590 5.83 5.58 6.08 0 0 0
2018-12-09 19:00:00 0 6582 5.63 5.41 5.87 0 0 0
2018-12-09 20:00:00 0 6582 5.27 4.99 5.57 0 0 0
2018-12-09 21:00:00 0 6582 5.07 4.97 5.14 0 0 0
2018-12-09 22:00:00 0.4 6582 4.9 4.8 5.02 0 0 0
2018-12-09 23:00:00 0 6572 4.36 4.03 4.81 0 0 0
2018-12-10 00:00:00 0 6572 3.7 3.31 4.04 0 0 0
2018-12-10 01:00:00 0 6572 3.54 2.65 3.9 0 0 0
2018-12-10 02:00:00 0 6572 2.44 2.29 2.77 0 0 0
2018-12-10 03:00:00 0 6572 2.96 2.63 3.25 0 0 0
2018-12-10 04:00:00 0 6572 3.37 3.27 3.55 0 0 0
2018-12-10 05:00:00 0 6562 3.78 3.56 3.99 0 0 0
2018-12-10 06:00:00 0 6572 3.94 3.85 4.01 0 0 0
2018-12-10 07:00:00 0 6572 3.96 3.89 4.15 0 0 0
2018-12-10 08:00:00 0 6572 4.09 3.97 4.16 0 0 0
2018-12-10 09:00:00 0 6572 4.07 3.85 4.42 0 0 0
2018-12-10 10:00:00 0.8 6590 4.57 4.39 5.1 0 0 0
2018-12-10 11:00:00 0 6600 5.99 5.29 6.58 0 0 0
2018-12-10 12:00:00 0 6600 7.11 6.53 7.78 0 0 0
2018-12-10 13:00:00 0 6610 7.3 7.16 7.46 0 0 0
2018-12-10 14:00:00 0 6590 7.45 7.28 7.69 0 0 0
2018-12-10 15:00:00 0 6582 6.83 6.66 7.14 0 0 0
2018-12-10 16:00:00 2.2 6590 5.02 4.29 6.28 0 0 0
2018-12-10 17:00:00 1 6572 4.18 4.06 4.47 0 0 0
2018-12-10 18:00:00 0.6 6562 4.19 3.98 4.48 0 0 0
2018-12-10 19:00:00 0 6562 3.98 3.79 4.11 0 0 0
2018-12-10 20:00:00 0 6562 3.62 3.56 3.7 0 0 0
2018-12-10 21:00:00 0.4 6562 3.76 3.43 3.9 0 0 0
2018-12-10 22:00:00 0.4 6562 3.07 2.95 3.21 0 0 0
2018-12-10 23:00:00 0 6562 3.03 2.89 3.18 0 0 0
2018-12-11 00:00:00 0 6562 2.45 2.1 2.7 0 0 0
2018-12-11 01:00:00 0 6562 1.15 0.77 1.84 0 0 0
2018-12-11 02:00:00 0 6562 1.41 0.88 1.86 0 0 0
2018-12-11 03:00:00 0 6552 1.36 0.98 1.81 0 0 0
2018-12-11 04:00:00 0 6562 0.45 -0.03 0.97 0 0 0
2018-12-11 05:00:00 0 6562 -0.52 -0.84 -0.1 0 0 0
2018-12-11 06:00:00 0 6552 -0.91 -1.19 -0.64 0 0 0
2018-12-11 07:00:00 0 6552 -1.19 -1.49 -1 0 0 0
2018-12-11 08:00:00 0 6552 -1.88 -2.08 -1.6 0 0 0
2018-12-11 09:00:00 0 6562 -1.98 -2.18 -1.8 0 0 0
2018-12-11 10:00:00 0 6600 -1.36 -1.79 -0.88 0 0 0
2018-12-11 11:00:00 0 6590 -0.27 -0.8 0.21 0 0 0
2018-12-11 12:00:00 0 6610 0.69 0.38 1.05 0 0 0
2018-12-11 13:00:00 0.2 6590 1.48 0.9 2.25 0 0 0